createdAt,value
2022-12-19T00:04:47.100Z,103089.22
2022-12-19T00:09:55.061Z,103085.03
2022-12-19T00:15:02.004Z,103093.66
2022-12-19T00:20:10.971Z,103081.94
2022-12-19T00:25:19.659Z,103093.00
2022-12-19T00:30:26.938Z,103094.31
2022-12-19T00:35:35.170Z,103092.22
2022-12-19T00:40:43.294Z,103102.41
2022-12-19T00:45:51.352Z,103092.22
2022-12-19T00:51:03.883Z,103080.28
2022-12-19T00:56:15.975Z,103072.63
2022-12-19T01:01:25.310Z,103075.06
2022-12-19T01:06:32.024Z,103072.53
2022-12-19T01:11:57.406Z,103063.22
2022-12-19T01:17:04.330Z,103047.94
2022-12-19T01:22:11.014Z,103049.06
2022-12-19T01:27:19.189Z,103048.47
2022-12-19T01:32:25.697Z,103044.38
2022-12-19T01:37:32.536Z,103044.38
2022-12-19T01:42:41.223Z,103034.84
2022-12-19T01:47:53.629Z,103034.09
2022-12-19T01:53:03.161Z,103032.72
2022-12-19T01:58:14.843Z,103028.41
2022-12-19T02:03:27.313Z,103015.44
2022-12-19T02:08:34.555Z,103007.91
2022-12-19T02:13:45.799Z,103008.53
2022-12-19T02:19:08.558Z,103000.47
2022-12-19T02:25:07.901Z,103011.03
2022-12-19T02:30:19.821Z,103019.47
2022-12-19T02:35:39.036Z,103007.47
2022-12-19T02:40:53.739Z,102999.97
2022-12-19T02:46:05.884Z,103012.84
2022-12-19T02:51:15.937Z,103006.88
2022-12-19T02:56:45.675Z,103007.03
2022-12-19T03:01:59.707Z,103013.88
2022-12-19T03:07:19.845Z,103009.91
2022-12-19T03:12:32.529Z,103007.66
2022-12-19T03:17:40.409Z,102991.03
2022-12-19T03:22:48.442Z,102989.00
2022-12-19T03:27:56.778Z,102973.59
2022-12-19T03:33:04.371Z,102981.81
2022-12-19T03:38:15.744Z,102984.41
2022-12-19T03:43:24.814Z,102979.63
2022-12-19T03:48:41.472Z,102971.88
2022-12-19T03:54:01.046Z,102965.94
2022-12-19T03:59:11.866Z,102950.22
2022-12-19T04:04:20.279Z,102949.44
2022-12-19T04:09:28.863Z,102928.16
2022-12-19T04:14:37.219Z,102930.78
2022-12-19T04:19:49.819Z,102918.09
2022-12-19T04:25:00.951Z,102916.06
2022-12-19T04:30:10.710Z,102909.84
2022-12-19T04:35:18.049Z,102911.88
2022-12-19T04:40:25.914Z,102907.47
2022-12-19T04:45:33.188Z,102914.41
2022-12-19T04:50:39.879Z,102902.91
2022-12-19T04:55:48.143Z,102895.13
2022-12-19T05:00:54.942Z,102897.41
2022-12-19T05:06:10.585Z,102907.72
2022-12-19T05:11:20.415Z,102903.00
2022-12-19T05:16:26.719Z,102903.63
2022-12-19T05:21:33.003Z,102905.50
2022-12-19T05:26:40.731Z,102911.50
2022-12-19T05:31:47.143Z,102913.78
2022-12-19T05:36:53.562Z,102909.56
2022-12-19T05:42:01.541Z,102903.22
2022-12-19T05:47:08.465Z,102893.69
2022-12-19T05:52:14.787Z,102890.50
2022-12-19T05:57:22.502Z,102879.72
2022-12-19T06:02:29.358Z,102867.81
2022-12-19T06:07:36.687Z,102868.44
2022-12-19T06:12:44.902Z,102877.28
2022-12-19T06:17:54.669Z,102878.44
2022-12-19T06:23:02.570Z,102871.44
2022-12-19T06:28:10.399Z,102874.25
2022-12-19T06:33:16.722Z,102867.50
2022-12-19T06:38:23.230Z,102868.88
2022-12-19T06:43:31.353Z,102858.06
2022-12-19T06:48:38.146Z,102861.97
2022-12-19T06:53:44.414Z,102874.41
2022-12-19T06:58:52.288Z,102871.34
2022-12-19T07:03:58.761Z,102866.09
2022-12-19T07:09:05.833Z,102856.63
2022-12-19T07:14:13.773Z,102855.66
2022-12-19T07:19:21.043Z,102854.97
2022-12-19T07:24:27.576Z,102851.84
2022-12-19T07:29:35.528Z,102862.84
2022-12-19T07:34:42.156Z,102853.94
2022-12-19T07:39:48.489Z,102854.47
2022-12-19T07:44:56.493Z,102851.41
2022-12-19T07:50:03.740Z,102841.69
2022-12-19T07:55:11.630Z,102853.72
2022-12-19T08:00:22.034Z,102849.53
2022-12-19T08:05:28.561Z,102846.03
2022-12-19T08:10:34.960Z,102846.28
2022-12-19T08:15:42.745Z,102836.78
2022-12-19T08:20:49.840Z,102835.41
2022-12-19T08:26:04.239Z,102818.31
2022-12-19T08:31:15.412Z,102813.78
2022-12-19T08:36:22.322Z,102805.06
2022-12-19T08:41:29.155Z,102800.63
2022-12-19T08:46:37.788Z,102796.69
2022-12-19T08:51:44.271Z,102787.69
2022-12-19T08:56:50.709Z,102765.63
2022-12-19T09:01:58.987Z,102758.28
2022-12-19T09:07:05.542Z,102739.28
2022-12-19T09:12:14.063Z,102733.44
2022-12-19T09:17:22.317Z,102734.94
2022-12-19T09:22:29.502Z,102725.81
2022-12-19T09:28:01.315Z,102720.75
2022-12-19T09:33:03.825Z,102714.13
2022-12-19T09:38:10.205Z,102690.31
2022-12-19T09:43:41.108Z,102676.47
2022-12-19T09:48:55.573Z,102677.34
2022-12-19T09:54:09.092Z,102667.63
2022-12-19T09:59:28.715Z,102658.50
2022-12-19T10:04:52.180Z,102647.75
2022-12-19T10:12:35.301Z,102651.41
2022-12-19T10:15:56.128Z,102641.63
2022-12-19T10:21:12.970Z,102639.69
2022-12-19T10:26:23.473Z,102631.53
2022-12-19T10:31:41.357Z,102622.31
2022-12-19T10:42:35.172Z,102583.94
2022-12-19T10:47:43.829Z,102581.09
2022-12-19T10:52:54.316Z,102560.19
2022-12-19T10:58:12.732Z,102546.56
2022-12-19T11:03:20.364Z,102536.53
2022-12-19T11:08:32.476Z,102529.00
2022-12-19T11:19:57.672Z,102521.00
2022-12-19T11:29:17.340Z,102513.56
2022-12-19T11:30:48.175Z,102514.59
2022-12-19T11:35:55.921Z,102487.47
2022-12-19T11:41:14.994Z,102463.28
2022-12-19T11:46:42.414Z,102442.44
2022-12-19T11:51:57.885Z,102441.88
2022-12-19T11:57:06.030Z,102439.88
2022-12-19T12:03:11.245Z,102431.63
2022-12-19T12:11:00.339Z,102431.06
2022-12-19T12:24:15.894Z,102405.31
2022-12-19T12:31:04.395Z,102399.78
2022-12-19T12:31:44.254Z,102409.06
2022-12-19T12:43:19.182Z,102374.13
2022-12-19T12:48:34.843Z,102380.66
2022-12-19T12:53:45.894Z,102402.78
2022-12-19T12:59:23.328Z,102404.97
2022-12-19T13:04:35.492Z,102378.25
2022-12-19T13:09:43.047Z,102361.22
2022-12-19T13:14:52.402Z,102340.16
2022-12-19T13:20:44.336Z,102344.31
2022-12-19T13:25:54.995Z,102316.59
2022-12-19T13:31:22.946Z,102308.75
2022-12-19T13:42:34.333Z,102297.84
2022-12-19T13:47:44.630Z,102291.53
2022-12-19T13:52:53.759Z,102287.69
2022-12-19T13:58:05.616Z,102274.78
2022-12-19T14:03:20.490Z,102270.59
2022-12-19T14:08:30.036Z,102273.13
2022-12-19T14:14:10.239Z,102270.59
2022-12-19T14:19:25.449Z,102244.19
2022-12-19T14:24:31.956Z,102245.75
2022-12-19T14:30:25.948Z,102239.13
2022-12-19T14:36:06.874Z,102224.00
2022-12-19T14:41:07.405Z,102204.34
2022-12-19T14:54:15.970Z,102204.94
2022-12-19T14:54:27.384Z,102192.25
2022-12-19T14:58:07.890Z,102189.25
2022-12-19T15:02:53.819Z,102175.13
2022-12-19T15:08:01.837Z,102168.50
2022-12-19T15:14:53.739Z,102149.91
2022-12-19T15:18:59.466Z,102159.09
2022-12-19T15:24:06.282Z,102137.31
2022-12-19T15:29:19.825Z,102146.88
2022-12-19T15:34:35.811Z,102136.84
2022-12-19T15:39:45.243Z,102130.31
2022-12-19T15:44:53.748Z,102135.41
2022-12-19T15:50:04.230Z,102118.69
2022-12-19T15:55:16.422Z,102116.03
2022-12-19T16:00:26.533Z,102120.03
2022-12-19T16:05:34.731Z,102109.88
2022-12-19T16:10:42.257Z,102097.94
2022-12-19T16:15:49.976Z,102110.56
2022-12-19T16:20:58.971Z,102105.28
2022-12-19T16:26:08.083Z,102094.13
2022-12-19T16:31:18.305Z,102074.50
2022-12-19T16:36:26.895Z,102062.66
2022-12-19T16:41:33.899Z,102061.78
2022-12-19T16:46:51.299Z,102049.75
2022-12-19T16:51:59.826Z,102048.19
2022-12-19T16:57:08.139Z,102044.88
2022-12-19T17:02:42.969Z,102028.19
2022-12-19T17:07:52.396Z,102034.94
2022-12-19T17:13:00.785Z,102024.75
2022-12-19T17:18:14.267Z,102005.41
2022-12-19T17:23:26.766Z,101997.31
2022-12-19T17:28:33.433Z,101993.31
2022-12-19T17:33:42.123Z,101988.78
2022-12-19T17:38:52.140Z,101972.06
2022-12-19T17:43:59.000Z,101979.22
2022-12-19T17:49:05.525Z,101974.63
2022-12-19T17:54:14.760Z,101951.47
2022-12-19T17:59:21.453Z,101937.13
2022-12-19T18:04:29.753Z,101920.59
2022-12-19T18:09:37.936Z,101926.81
2022-12-19T18:14:45.018Z,101927.19
2022-12-19T18:19:52.828Z,101927.41
2022-12-19T18:25:16.976Z,101916.53
2022-12-19T18:30:25.998Z,101912.50
2022-12-19T18:35:36.557Z,101910.06
2022-12-19T18:40:46.943Z,101912.09
2022-12-19T18:45:54.712Z,101912.38
2022-12-19T18:51:03.309Z,101910.88
2022-12-19T18:56:13.883Z,101903.44
2022-12-19T19:01:23.735Z,101900.22
2022-12-19T19:06:37.783Z,101878.44
2022-12-19T19:11:46.812Z,101872.66
2022-12-19T19:16:54.348Z,101882.25
2022-12-19T19:22:01.160Z,101867.91
2022-12-19T19:27:11.112Z,101852.63
2022-12-19T19:32:20.617Z,101852.94
2022-12-19T19:37:30.479Z,101843.69
2022-12-19T19:42:39.065Z,101829.47
2022-12-19T19:47:46.179Z,101836.59
2022-12-19T19:52:53.034Z,101827.56
2022-12-19T19:58:02.796Z,101821.88
2022-12-19T20:03:14.080Z,101826.34
2022-12-19T20:08:27.075Z,101803.59
2022-12-19T20:13:35.679Z,101786.09
2022-12-19T20:18:43.391Z,101776.94
2022-12-19T20:23:50.390Z,101769.91
2022-12-19T20:28:58.744Z,101759.44
2022-12-19T20:34:07.339Z,101748.94
2022-12-19T20:39:15.600Z,101740.81
2022-12-19T20:44:24.835Z,101744.41
2022-12-19T20:49:31.896Z,101749.75
2022-12-19T20:54:39.211Z,101743.47
2022-12-19T20:59:47.268Z,101741.16
2022-12-19T21:04:53.716Z,101736.38
2022-12-19T21:10:00.201Z,101727.72
2022-12-19T21:15:09.556Z,101710.16
2022-12-19T21:20:17.185Z,101692.41
2022-12-19T21:25:23.967Z,101685.84
2022-12-19T21:30:31.983Z,101676.75
2022-12-19T21:35:39.535Z,101668.50
2022-12-19T21:40:46.099Z,101658.41
2022-12-19T21:46:04.806Z,101644.13
2022-12-19T21:51:13.526Z,101631.38
2022-12-19T21:56:26.886Z,101619.63
2022-12-19T22:01:36.176Z,101619.13
2022-12-19T22:06:43.463Z,101608.25
2022-12-19T22:11:50.623Z,101611.84
2022-12-19T22:16:58.873Z,101607.66
2022-12-19T22:22:05.790Z,101604.47
2022-12-19T22:27:12.415Z,101591.06
2022-12-19T22:32:20.274Z,101586.00
2022-12-19T22:37:27.176Z,101584.69
2022-12-19T22:42:34.221Z,101577.00
2022-12-19T22:47:45.099Z,101566.09
2022-12-19T22:52:51.465Z,101564.50
2022-12-19T22:57:57.833Z,101563.97
2022-12-19T23:03:06.494Z,101565.66
2022-12-19T23:08:13.350Z,101559.25
2022-12-19T23:13:20.153Z,101546.72
2022-12-19T23:18:28.352Z,101538.44
2022-12-19T23:23:35.034Z,101531.00
2022-12-19T23:28:42.223Z,101528.81
2022-12-19T23:33:50.539Z,101523.03
2022-12-19T23:38:57.801Z,101524.88
2022-12-19T23:44:04.609Z,101520.75
2022-12-19T23:49:12.270Z,101513.91
2022-12-19T23:54:18.837Z,101507.31
2022-12-19T23:59:25.517Z,101507.25
